createdAt,value
2022-07-31T00:02:55.011Z,19.12
2022-07-31T00:06:57.034Z,19.12
2022-07-31T00:10:59.206Z,19.20
2022-07-31T00:15:03.252Z,19.24
2022-07-31T00:19:05.395Z,19.31
2022-07-31T00:23:07.454Z,19.35
2022-07-31T00:27:11.594Z,19.42
2022-07-31T00:31:13.805Z,19.45
2022-07-31T00:35:16.401Z,19.51
2022-07-31T00:39:18.461Z,19.55
2022-07-31T00:43:20.550Z,19.52
2022-07-31T00:47:25.514Z,19.57
2022-07-31T00:51:28.062Z,19.45
2022-07-31T00:55:30.268Z,19.26
2022-07-31T00:59:50.563Z,19.02
2022-07-31T01:03:53.493Z,18.93
2022-07-31T01:07:55.510Z,18.90
2022-07-31T01:12:05.880Z,18.94
2022-07-31T01:16:11.058Z,18.95
2022-07-31T01:20:14.201Z,18.81
2022-07-31T01:24:39.990Z,18.51
2022-07-31T01:29:00.433Z,18.48
2022-07-31T01:33:08.446Z,18.42
2022-07-31T01:37:39.887Z,18.27
2022-07-31T01:41:47.374Z,18.24
2022-07-31T01:45:55.510Z,18.19
2022-07-31T01:50:00.004Z,18.11
2022-07-31T01:54:03.383Z,18.18
2022-07-31T01:58:06.927Z,18.27
2022-07-31T02:02:10.007Z,18.39
2022-07-31T02:06:15.455Z,18.48
2022-07-31T02:10:19.736Z,18.53
2022-07-31T02:14:24.888Z,18.47
2022-07-31T02:18:27.613Z,18.50
2022-07-31T02:22:48.357Z,18.52
2022-07-31T02:26:51.628Z,18.58
2022-07-31T02:30:54.280Z,18.59
2022-07-31T02:35:00.466Z,18.60
2022-07-31T02:39:03.576Z,18.63
2022-07-31T02:43:08.096Z,18.61
2022-07-31T02:47:11.979Z,18.53
2022-07-31T02:51:14.586Z,18.52
2022-07-31T02:55:18.702Z,18.57
2022-07-31T02:59:22.341Z,18.58
2022-07-31T03:03:34.915Z,18.57
2022-07-31T03:07:36.979Z,18.50
2022-07-31T03:11:39.718Z,18.50
2022-07-31T03:15:43.087Z,18.36
2022-07-31T03:19:53.778Z,18.16
2022-07-31T03:23:56.168Z,17.98
2022-07-31T03:28:00.110Z,17.94
2022-07-31T03:32:02.934Z,17.94
2022-07-31T03:36:05.745Z,17.87
2022-07-31T03:40:08.971Z,17.76
2022-07-31T03:44:11.599Z,17.72
2022-07-31T03:48:14.398Z,17.70
2022-07-31T03:52:16.529Z,17.59
2022-07-31T03:56:20.022Z,17.41
2022-07-31T04:00:27.072Z,17.31
2022-07-31T04:04:31.131Z,17.41
2022-07-31T04:08:35.858Z,17.47
2022-07-31T04:12:38.165Z,17.50
2022-07-31T04:16:40.204Z,17.53
2022-07-31T04:20:42.817Z,17.47
2022-07-31T04:24:45.744Z,17.56
2022-07-31T04:29:21.192Z,17.76
2022-07-31T04:33:23.273Z,17.93
2022-07-31T04:37:25.385Z,18.07
2022-07-31T04:41:28.141Z,18.29
2022-07-31T04:45:30.855Z,18.53
2022-07-31T04:49:33.260Z,18.87
2022-07-31T04:53:38.408Z,20.06
2022-07-31T04:57:40.866Z,21.71
2022-07-31T05:01:44.687Z,21.75
2022-07-31T05:05:49.944Z,23.35
2022-07-31T05:09:52.601Z,22.39
2022-07-31T05:13:56.810Z,21.61
2022-07-31T05:17:58.823Z,21.06
2022-07-31T05:22:29.621Z,20.70
2022-07-31T05:26:45.745Z,20.41
2022-07-31T05:30:47.746Z,20.28
2022-07-31T05:34:49.925Z,20.23
2022-07-31T05:38:51.995Z,20.22
2022-07-31T05:43:16.590Z,20.28
2022-07-31T05:47:40.103Z,20.34
2022-07-31T05:51:44.679Z,20.30
2022-07-31T05:55:49.635Z,20.28
2022-07-31T06:00:05.972Z,20.34
2022-07-31T06:04:18.834Z,20.44
2022-07-31T06:08:22.860Z,20.49
2022-07-31T06:12:25.870Z,20.58
2022-07-31T06:16:27.917Z,20.65
2022-07-31T06:20:30.671Z,20.73
2022-07-31T06:24:33.534Z,20.80
2022-07-31T06:28:46.561Z,20.95
2022-07-31T06:32:49.910Z,21.14
2022-07-31T06:36:52.016Z,21.17
2022-07-31T06:40:57.119Z,21.19
2022-07-31T06:45:25.076Z,21.21
2022-07-31T06:49:56.126Z,21.30
2022-07-31T06:54:04.011Z,21.41
2022-07-31T06:58:06.148Z,21.38
2022-07-31T07:02:08.688Z,21.41
2022-07-31T07:06:11.261Z,21.59
2022-07-31T07:10:13.598Z,22.03
2022-07-31T07:14:33.700Z,22.62
2022-07-31T07:18:37.057Z,23.08
2022-07-31T07:22:39.137Z,23.53
2022-07-31T07:26:41.995Z,23.86
2022-07-31T07:30:44.241Z,24.00
2022-07-31T07:34:47.730Z,24.10
2022-07-31T07:39:21.865Z,24.19
2022-07-31T07:43:24.621Z,24.44
2022-07-31T07:47:26.709Z,24.85
2022-07-31T07:52:10.089Z,24.85
2022-07-31T07:56:13.944Z,24.63
2022-07-31T08:00:36.280Z,24.58
2022-07-31T08:04:39.546Z,24.88
2022-07-31T08:08:41.749Z,25.37
2022-07-31T08:13:03.709Z,25.44
2022-07-31T08:17:28.743Z,25.22
2022-07-31T08:21:31.737Z,24.99
2022-07-31T08:25:33.802Z,24.96
2022-07-31T08:29:37.915Z,24.92
2022-07-31T08:33:52.893Z,25.20
2022-07-31T08:38:02.175Z,25.90
2022-07-31T08:42:10.032Z,26.59
2022-07-31T08:46:13.191Z,27.11
2022-07-31T08:50:16.278Z,27.30
2022-07-31T08:54:19.679Z,27.40
2022-07-31T08:58:21.765Z,27.38
2022-07-31T09:02:26.581Z,27.26
2022-07-31T09:06:51.707Z,27.06
2022-07-31T09:11:09.513Z,27.08
2022-07-31T09:15:29.593Z,27.28
2022-07-31T09:19:51.702Z,27.42
2022-07-31T09:24:00.213Z,27.68
2022-07-31T09:28:06.993Z,27.89
2022-07-31T09:32:10.045Z,27.94
2022-07-31T09:36:34.875Z,28.01
2022-07-31T09:40:57.136Z,28.10
2022-07-31T09:45:25.631Z,28.28
2022-07-31T09:49:33.953Z,28.32
2022-07-31T09:53:50.245Z,28.20
2022-07-31T09:58:27.505Z,27.95
2022-07-31T10:02:29.941Z,27.72
2022-07-31T10:06:35.180Z,27.64
2022-07-31T10:10:38.447Z,27.69
2022-07-31T10:15:03.025Z,27.90
2022-07-31T10:19:11.379Z,28.16
2022-07-31T10:23:34.937Z,28.43
2022-07-31T10:27:40.725Z,28.55
2022-07-31T10:31:47.514Z,28.60
2022-07-31T10:36:05.031Z,28.69
2022-07-31T10:40:41.791Z,28.88
2022-07-31T10:44:55.411Z,29.02
2022-07-31T10:49:08.438Z,28.92
2022-07-31T10:53:51.172Z,28.83
2022-07-31T10:58:17.384Z,28.67
2022-07-31T11:02:32.762Z,28.67
2022-07-31T11:06:53.855Z,28.81
2022-07-31T11:11:18.563Z,29.01
2022-07-31T11:15:30.666Z,29.34
2022-07-31T11:20:20.393Z,29.53
2022-07-31T11:24:26.246Z,29.42
2022-07-31T11:28:29.149Z,29.34
2022-07-31T11:32:31.158Z,29.22
2022-07-31T11:36:33.199Z,29.08
2022-07-31T11:40:35.315Z,28.87
2022-07-31T11:44:37.362Z,28.82
2022-07-31T11:48:44.881Z,29.07
2022-07-31T11:52:48.075Z,29.37
2022-07-31T11:56:53.427Z,29.56
2022-07-31T12:00:58.002Z,29.57
2022-07-31T12:05:04.258Z,29.36
2022-07-31T12:09:06.637Z,29.08
2022-07-31T12:13:20.345Z,28.96
2022-07-31T12:17:23.022Z,28.92
2022-07-31T12:21:36.381Z,29.27
2022-07-31T12:25:46.348Z,29.53
2022-07-31T12:29:48.397Z,29.55
2022-07-31T12:33:50.457Z,29.73
2022-07-31T12:37:53.866Z,29.98
2022-07-31T12:41:56.735Z,30.10
2022-07-31T12:46:02.817Z,30.13
2022-07-31T12:50:05.277Z,29.92
2022-07-31T12:54:08.907Z,30.04
2022-07-31T12:58:11.009Z,30.11
2022-07-31T13:02:13.219Z,29.99
2022-07-31T13:06:15.281Z,29.87
2022-07-31T13:10:21.145Z,29.90
2022-07-31T13:14:26.443Z,30.07
2022-07-31T13:18:30.038Z,30.21
2022-07-31T13:22:32.322Z,30.22
2022-07-31T13:26:38.254Z,30.29
2022-07-31T13:30:40.389Z,30.27
2022-07-31T13:34:42.483Z,30.08
2022-07-31T13:38:44.571Z,29.92
2022-07-31T13:42:46.580Z,29.85
2022-07-31T13:46:48.578Z,29.86
2022-07-31T13:50:50.607Z,29.95
2022-07-31T13:54:52.667Z,30.06
2022-07-31T13:58:55.199Z,30.12
2022-07-31T14:02:58.015Z,30.01
2022-07-31T14:07:04.223Z,29.99
2022-07-31T14:11:13.694Z,29.92
2022-07-31T14:15:18.312Z,29.90
2022-07-31T14:19:20.904Z,29.96
2022-07-31T14:23:31.632Z,30.01
2022-07-31T14:27:38.666Z,30.11
2022-07-31T14:31:40.741Z,30.20
2022-07-31T14:35:42.836Z,30.23
2022-07-31T14:39:44.979Z,30.12
2022-07-31T14:43:46.991Z,30.24
2022-07-31T14:47:50.182Z,30.33
2022-07-31T14:51:52.412Z,30.39
2022-07-31T14:55:54.455Z,30.41
2022-07-31T15:00:12.778Z,30.21
2022-07-31T15:04:14.854Z,29.89
2022-07-31T15:08:16.935Z,29.59
2022-07-31T15:12:19.780Z,29.55
2022-07-31T15:16:21.847Z,29.67
2022-07-31T15:20:30.093Z,29.66
2022-07-31T15:24:35.476Z,29.74
2022-07-31T15:28:37.643Z,29.81
2022-07-31T15:32:40.254Z,29.89
2022-07-31T15:36:42.350Z,30.13
2022-07-31T15:40:46.963Z,30.40
2022-07-31T15:44:49.155Z,30.48
2022-07-31T15:48:52.147Z,30.46
2022-07-31T15:52:54.286Z,30.43
2022-07-31T15:56:56.650Z,30.44
2022-07-31T16:00:58.879Z,30.45
2022-07-31T16:05:11.776Z,30.54
2022-07-31T16:09:24.025Z,30.43
2022-07-31T16:13:26.161Z,30.21
2022-07-31T16:17:37.700Z,30.26
2022-07-31T16:21:40.591Z,30.26
2022-07-31T16:25:42.607Z,30.22
2022-07-31T16:29:59.793Z,30.22
2022-07-31T16:34:04.291Z,29.96
2022-07-31T16:38:07.523Z,29.79
2022-07-31T16:42:09.554Z,29.77
2022-07-31T16:46:11.808Z,29.67
2022-07-31T16:50:13.872Z,29.69
2022-07-31T16:54:16.403Z,29.71
2022-07-31T16:58:18.753Z,29.66
2022-07-31T17:02:27.376Z,29.58
2022-07-31T17:06:35.171Z,29.53
2022-07-31T17:10:39.592Z,29.49
2022-07-31T17:14:43.803Z,29.41
2022-07-31T17:18:52.611Z,29.28
2022-07-31T17:22:56.725Z,29.02
2022-07-31T17:26:59.687Z,28.75
2022-07-31T17:31:04.903Z,28.52
2022-07-31T17:35:08.052Z,28.38
2022-07-31T17:39:16.857Z,28.29
2022-07-31T17:43:19.502Z,28.26
2022-07-31T17:47:30.185Z,28.22
2022-07-31T17:51:32.305Z,28.12
2022-07-31T17:55:34.342Z,28.04
2022-07-31T17:59:36.385Z,27.98
2022-07-31T18:03:38.419Z,27.88
2022-07-31T18:07:40.537Z,27.78
2022-07-31T18:11:42.574Z,27.73
2022-07-31T18:15:44.602Z,27.72
2022-07-31T18:19:47.706Z,27.61
2022-07-31T18:23:49.749Z,27.50
2022-07-31T18:27:52.427Z,27.42
2022-07-31T18:31:54.506Z,27.36
2022-07-31T18:35:56.548Z,27.25
2022-07-31T18:39:59.086Z,27.17
2022-07-31T18:44:04.588Z,27.09
2022-07-31T18:48:07.014Z,27.01
2022-07-31T18:52:12.691Z,26.92
2022-07-31T18:56:17.808Z,26.81
2022-07-31T19:00:19.887Z,26.72
2022-07-31T19:04:22.437Z,26.64
2022-07-31T19:08:24.798Z,26.52
2022-07-31T19:12:26.820Z,26.41
2022-07-31T19:16:29.211Z,26.31
2022-07-31T19:20:56.356Z,26.20
2022-07-31T19:24:54.770Z,26.09
2022-07-31T19:28:56.934Z,25.98
2022-07-31T19:32:59.016Z,25.84
2022-07-31T19:37:01.085Z,25.74
2022-07-31T19:41:03.963Z,25.63
2022-07-31T19:45:06.426Z,25.53
2022-07-31T19:49:08.580Z,25.43
2022-07-31T19:53:10.689Z,25.38
2022-07-31T19:57:13.913Z,25.32
2022-07-31T20:01:16.646Z,25.28
2022-07-31T20:05:18.721Z,25.23
2022-07-31T20:09:21.813Z,25.15
2022-07-31T20:13:24.817Z,25.09
2022-07-31T20:17:27.208Z,25.00
2022-07-31T20:21:34.924Z,24.94
2022-07-31T20:25:39.212Z,24.89
2022-07-31T20:29:41.298Z,24.86
2022-07-31T20:33:48.906Z,24.80
2022-07-31T20:38:00.631Z,24.74
2022-07-31T20:42:03.288Z,24.66
2022-07-31T20:46:05.669Z,24.58
2022-07-31T20:50:09.310Z,24.55
2022-07-31T20:54:12.028Z,24.54
2022-07-31T20:58:14.146Z,24.50
2022-07-31T21:02:16.204Z,24.41
2022-07-31T21:06:21.947Z,24.35
2022-07-31T21:10:28.172Z,24.26
2022-07-31T21:14:31.517Z,24.20
2022-07-31T21:18:34.924Z,24.13
2022-07-31T21:22:37.907Z,24.07
2022-07-31T21:26:41.614Z,24.07
2022-07-31T21:30:43.803Z,24.01
2022-07-31T21:34:46.062Z,23.93
2022-07-31T21:38:48.317Z,23.90
2022-07-31T21:42:55.133Z,23.88
2022-07-31T21:47:01.810Z,23.84
2022-07-31T21:51:06.055Z,23.80
2022-07-31T21:55:08.675Z,23.73
2022-07-31T21:59:13.243Z,23.67
2022-07-31T22:03:15.352Z,23.64
2022-07-31T22:07:32.604Z,23.60
2022-07-31T22:11:35.747Z,23.61
2022-07-31T22:15:52.672Z,23.56
2022-07-31T22:20:00.554Z,23.53
2022-07-31T22:24:03.236Z,23.50
2022-07-31T22:28:05.951Z,23.42
2022-07-31T22:32:08.769Z,23.36
2022-07-31T22:36:11.203Z,23.26
2022-07-31T22:40:14.836Z,23.17
2022-07-31T22:44:19.015Z,23.11
2022-07-31T22:48:26.771Z,23.04
2022-07-31T22:52:34.503Z,22.96
2022-07-31T22:56:38.523Z,22.90
2022-07-31T23:00:41.928Z,22.82
2022-07-31T23:04:44.101Z,22.76
2022-07-31T23:08:46.137Z,22.70
2022-07-31T23:12:52.443Z,22.62
2022-07-31T23:16:54.521Z,22.55
2022-07-31T23:20:58.057Z,22.55
2022-07-31T23:25:00.474Z,22.51
2022-07-31T23:29:03.072Z,22.42
2022-07-31T23:33:05.103Z,22.34
2022-07-31T23:37:09.206Z,22.25
2022-07-31T23:41:11.727Z,22.25
2022-07-31T23:45:13.823Z,22.24
2022-07-31T23:49:17.753Z,22.26
2022-07-31T23:53:19.891Z,22.29
2022-07-31T23:57:21.974Z,22.30
